Time;durP1;ratioP1;P1;durP2;ratioP2;P2;SDS_P1;SDS_P2;PMS_P1;PMS_P2;Temp;Humidity;BMP_temperature;BMP_pressure;BME280_temperature;BME280_humidity;BME280_pressure;Samples;Min_cycle;Max_cycle;Signal;HPM_P1;HPM_P2
2023/04/02 00:01:05;;;;;;;1.45;0.70;;;;;;;;;;4887827;29;20029;-91
2023/04/02 00:03:44;;;;;;;1.40;0.60;;;;;;;;;;4883041;29;20088;-93
2023/04/02 00:06:39;;;;;;;1.42;0.70;;;;;;;;;;4882573;29;20490;-92
2023/04/02 00:09:40;;;;;;;1.25;0.50;;;;;;;;;;4881132;29;20048;-92
2023/04/02 00:12:28;;;;;;;1.58;0.75;;;;;;;;;;4824548;29;20319;-92
2023/04/02 00:15:00;;;;;;;2.85;0.80;;;;;;;;;;4840169;29;20167;-92
2023/04/02 00:17:52;;;;;;;3.55;0.70;;;;;;;;;;4844292;29;20077;-92
2023/04/02 00:20:19;;;;;;;0.82;0.40;;;;;;;;;;4863074;29;20145;-91
2023/04/02 00:22:48;;;;;;;0.95;0.50;;;;;;;;;;4881502;29;20099;-95
2023/04/02 00:25:17;;;;;;;1.30;0.70;;;;;;;;;;4881186;29;20033;-93
2023/04/02 00:27:50;;;;;;;1.35;0.70;;;;;;;;;;4881751;29;20029;-94
2023/04/02 00:30:16;;;;;;;1.00;0.50;;;;;;;;;;4880493;29;20039;-93
2023/04/02 00:32:46;;;;;;;1.08;0.60;;;;;;;;;;4896307;29;20120;-92
2023/04/02 00:35:38;;;;;;;1.80;0.80;;;;;;;;;;4882934;29;20029;-91
2023/04/02 00:38:13;;;;;;;1.00;0.50;;;;;;;;;;4900397;23;20011;-94
2023/04/02 00:40:39;;;;;;;1.25;0.65;;;;;;;;;;4870796;29;20548;-92
2023/04/02 00:43:05;;;;;;;1.73;0.50;;;;;;;;;;4880935;29;20031;-93
2023/04/02 00:45:34;;;;;;;1.27;0.60;;;;;;;;;;4881004;29;20401;-93
2023/04/02 00:48:13;;;;;;;1.10;0.60;;;;;;;;;;4897078;29;20029;-92
2023/04/02 00:50:41;;;;;;;1.30;0.60;;;;;;;;;;4897073;29;20040;-91
2023/04/02 00:53:10;;;;;;;1.30;0.55;;;;;;;;;;4883234;29;20050;-92
2023/04/02 00:55:41;;;;;;;2.30;0.65;;;;;;;;;;4897607;29;20028;-93
2023/04/02 00:58:30;;;;;;;2.78;0.70;;;;;;;;;;4896411;29;20043;-93
2023/04/02 01:01:00;;;;;;;1.35;0.60;;;;;;;;;;4896399;29;20058;-93
2023/04/02 01:03:35;;;;;;;1.52;0.80;;;;;;;;;;4896697;29;20029;-93
2023/04/02 01:06:21;;;;;;;1.75;0.70;;;;;;;;;;4897558;29;20036;-93
2023/04/02 01:08:53;;;;;;;1.15;0.52;;;;;;;;;;4900239;29;20048;-92
2023/04/02 01:11:46;;;;;;;1.85;0.90;;;;;;;;;;4896694;29;20037;-92
2023/04/02 01:14:33;;;;;;;1.25;0.68;;;;;;;;;;4897583;29;20025;-92
2023/04/02 01:17:19;;;;;;;1.55;0.70;;;;;;;;;;4896064;29;20036;-93
2023/04/02 01:20:36;;;;;;;1.90;0.77;;;;;;;;;;4898335;29;20445;-90
2023/04/02 01:23:21;;;;;;;2.10;0.80;;;;;;;;;;4822872;29;20075;-94
2023/04/02 01:26:10;;;;;;;0.90;0.63;;;;;;;;;;4896250;29;20041;-93
2023/04/02 01:28:57;;;;;;;1.65;0.90;;;;;;;;;;4896809;29;20494;-94
2023/04/02 01:31:37;;;;;;;1.70;0.90;;;;;;;;;;4898862;29;20033;-96
2023/04/02 01:43:57;;;;;;;1.27;0.70;;;;;;;;;;4911843;29;20070;-93
2023/04/02 01:46:33;;;;;;;3.03;1.00;;;;;;;;;;4902872;29;20067;-93
2023/04/02 01:49:10;;;;;;;2.08;1.00;;;;;;;;;;4902520;29;20043;-92
2023/04/02 01:51:42;;;;;;;1.23;0.70;;;;;;;;;;4902123;29;20024;-93
2023/04/02 01:54:15;;;;;;;1.52;0.80;;;;;;;;;;4902440;29;20145;-92
2023/04/02 01:56:52;;;;;;;1.30;0.80;;;;;;;;;;4902106;29;20032;-92
2023/04/02 01:59:25;;;;;;;1.83;0.70;;;;;;;;;;4902266;29;20099;-93
2023/04/02 02:01:59;;;;;;;1.63;0.80;;;;;;;;;;4902143;29;20035;-92
2023/04/02 02:04:26;;;;;;;4.28;1.48;;;;;;;;;;4901957;29;20060;-90
2023/04/02 02:06:57;;;;;;;1.20;0.73;;;;;;;;;;4904028;29;20119;-92
2023/04/02 02:09:28;;;;;;;1.40;0.80;;;;;;;;;;4904532;29;20048;-90
2023/04/02 02:12:01;;;;;;;1.20;0.73;;;;;;;;;;4905265;29;20024;-90
2023/04/02 02:14:31;;;;;;;1.40;0.77;;;;;;;;;;4903157;29;20036;-93
2023/04/02 02:17:03;;;;;;;1.25;0.75;;;;;;;;;;4906947;29;20080;-90
2023/04/02 02:19:38;;;;;;;1.30;0.70;;;;;;;;;;4896118;29;20040;-92
2023/04/02 02:22:23;;;;;;;1.10;0.70;;;;;;;;;;4901371;29;20024;-92
2023/04/02 02:24:52;;;;;;;1.15;0.70;;;;;;;;;;4902935;29;20087;-93
2023/04/02 02:27:21;;;;;;;1.83;0.70;;;;;;;;;;4901774;29;20056;-92
2023/04/02 02:29:59;;;;;;;1.45;0.63;;;;;;;;;;4901527;29;20044;-90
2023/04/02 02:32:41;;;;;;;1.52;0.70;;;;;;;;;;4902793;29;20322;-90
2023/04/02 02:35:36;;;;;;;1.98;0.70;;;;;;;;;;4899900;29;20032;-90
2023/04/02 02:38:28;;;;;;;1.40;0.90;;;;;;;;;;4942240;23;20441;-90
2023/04/02 02:41:03;;;;;;;2.15;0.70;;;;;;;;;;4849317;29;20096;-91
2023/04/02 02:43:33;;;;;;;2.42;0.85;;;;;;;;;;4883878;29;20045;-92
2023/04/02 02:46:10;;;;;;;1.42;0.70;;;;;;;;;;4883579;29;20367;-90
2023/04/02 02:48:43;;;;;;;1.50;0.90;;;;;;;;;;4886121;29;20426;-90
2023/04/02 02:51:14;;;;;;;1.02;0.65;;;;;;;;;;4882751;29;20040;-93
2023/04/02 02:53:51;;;;;;;1.35;0.85;;;;;;;;;;4882680;29;20173;-92
2023/04/02 02:56:40;;;;;;;1.23;0.70;;;;;;;;;;4882290;29;20033;-93
2023/04/02 02:59:13;;;;;;;1.80;0.90;;;;;;;;;;4904831;23;20073;-93
2023/04/02 03:01:46;;;;;;;1.60;0.88;;;;;;;;;;4890862;29;20112;-94
2023/04/02 03:04:34;;;;;;;1.50;0.77;;;;;;;;;;4897982;29;20040;-92
2023/04/02 03:07:15;;;;;;;1.75;0.90;;;;;;;;;;4898127;29;20028;-93
2023/04/02 03:09:47;;;;;;;3.13;1.00;;;;;;;;;;4897260;29;20043;-92
2023/04/02 03:12:41;;;;;;;2.95;0.70;;;;;;;;;;4898433;29;20024;-94
2023/04/02 03:15:07;;;;;;;;;;;;;;;;;;4898147;29;20028;-93
2023/04/02 03:17:45;;;;;;;1.77;0.82;;;;;;;;;;4898187;29;19908;-92
2023/04/02 03:20:14;;;;;;;2.38;0.98;;;;;;;;;;4899556;29;20033;-92
2023/04/02 03:22:49;;;;;;;1.30;0.70;;;;;;;;;;4902108;29;20031;-91
2023/04/02 03:25:21;;;;;;;1.55;0.90;;;;;;;;;;4898527;29;20032;-91
2023/04/02 03:27:57;;;;;;;4.65;0.75;;;;;;;;;;4899330;29;20028;-92
2023/04/02 03:30:29;;;;;;;2.22;0.80;;;;;;;;;;4898063;29;20052;-90
2023/04/02 03:33:22;;;;;;;2.05;0.75;;;;;;;;;;4900919;29;20021;-92
2023/04/02 03:35:59;;;;;;;1.42;0.80;;;;;;;;;;4818290;29;20217;-93
2023/04/02 03:38:33;;;;;;;1.73;0.70;;;;;;;;;;4807265;29;20101;-91
2023/04/02 03:41:05;;;;;;;1.85;0.90;;;;;;;;;;4807960;29;20069;-92
2023/04/02 03:43:36;;;;;;;1.70;0.90;;;;;;;;;;4808412;29;20120;-92
2023/04/02 03:46:28;;;;;;;1.30;0.80;;;;;;;;;;4823222;29;20055;-91
2023/04/02 03:49:14;;;;;;;1.40;0.88;;;;;;;;;;4886769;29;20040;-92
2023/04/02 03:52:00;;;;;;;1.80;0.80;;;;;;;;;;4897196;29;20028;-91
2023/04/02 03:54:30;;;;;;;1.80;0.75;;;;;;;;;;4897739;29;20088;-94
2023/04/02 03:57:00;;;;;;;1.30;0.70;;;;;;;;;;4897131;29;20115;-90
2023/04/02 04:00:05;;;;;;;3.80;1.00;;;;;;;;;;4898208;29;20124;-93
2023/04/02 04:02:51;;;;;;;1.65;0.80;;;;;;;;;;4823483;29;20026;-90
2023/04/02 04:05:28;;;;;;;1.60;0.90;;;;;;;;;;4805487;29;20101;-92
2023/04/02 04:08:12;;;;;;;4.18;1.40;;;;;;;;;;4828485;23;20047;-91
2023/04/02 04:10:45;;;;;;;2.08;1.00;;;;;;;;;;4893397;29;20403;-94
2023/04/02 04:22:30;;;;;;;2.03;1.27;;;;;;;;;;5395810;23;20270;-95
2023/04/02 04:25:07;;;;;;;2.20;1.25;;;;;;;;;;4900597;29;20032;-93
2023/04/02 04:28:04;;;;;;;1.80;1.10;;;;;;;;;;4902995;29;20127;-92
2023/04/02 04:30:42;;;;;;;2.22;1.23;;;;;;;;;;4882471;29;20054;-95
2023/04/02 04:33:38;;;;;;;2.22;1.20;;;;;;;;;;4905915;29;20084;-93
2023/04/02 04:36:30;;;;;;;2.30;1.30;;;;;;;;;;4905314;29;20131;-96
2023/04/02 04:39:04;;;;;;;2.70;1.40;;;;;;;;;;4978757;23;20048;-93
2023/04/02 04:41:36;;;;;;;3.00;1.40;;;;;;;;;;4924071;29;20023;-94
2023/04/02 04:44:21;;;;;;;3.78;1.60;;;;;;;;;;4918792;29;20029;-94
2023/04/02 04:47:01;;;;;;;4.28;2.00;;;;;;;;;;4921944;29;20052;-96
2023/04/02 04:49:31;;;;;;;9.57;3.70;;;;;;;;;;4917781;29;20078;-91
2023/04/02 04:52:20;;;;;;;1.60;1.17;;;;;;;;;;4918378;29;20066;-91
2023/04/02 04:55:24;;;;;;;2.58;1.20;;;;;;;;;;4909770;29;20017;-94
2023/04/02 04:58:01;;;;;;;2.30;1.50;;;;;;;;;;4909843;29;20099;-92
2023/04/02 05:00:59;;;;;;;4.82;1.60;;;;;;;;;;4922433;29;20044;-91
2023/04/02 05:03:43;;;;;;;3.10;1.80;;;;;;;;;;4921375;29;20032;-91
2023/04/02 05:06:26;;;;;;;2.08;1.40;;;;;;;;;;4923844;29;20071;-90
2023/04/02 05:14:46;;;;;;;2.88;2.00;;;;;;;;;;5228261;23;20053;-89
2023/04/02 05:17:25;;;;;;;2.30;1.60;;;;;;;;;;4907134;29;20080;-91
2023/04/02 05:20:08;;;;;;;2.15;1.70;;;;;;;;;;4903450;29;20088;-90
2023/04/02 05:22:56;;;;;;;3.20;1.88;;;;;;;;;;4900938;29;20052;-91
2023/04/02 05:25:32;;;;;;;2.45;1.67;;;;;;;;;;4887021;29;20029;-91
2023/04/02 05:31:04;;;;;;;2.45;1.75;;;;;;;;;;4961817;23;20057;-89
2023/04/02 05:34:01;;;;;;;2.10;1.70;;;;;;;;;;4964155;23;20108;-91
2023/04/02 05:42:30;;;;;;;2.63;1.85;;;;;;;;;;5141353;23;20061;-92
2023/04/02 05:45:18;;;;;;;3.22;1.90;;;;;;;;;;4907029;29;20043;-94
2023/04/02 05:48:05;;;;;;;2.20;1.85;;;;;;;;;;4911476;29;20096;-92
2023/04/02 05:50:42;;;;;;;2.17;1.70;;;;;;;;;;5207211;23;20052;-93
2023/04/02 05:53:26;;;;;;;3.33;1.60;;;;;;;;;;4912008;29;20040;-92
2023/04/02 06:13:03;;;;;;;2.28;1.77;;;;;;;;;;4926369;29;20032;-92
2023/04/02 06:15:33;;;;;;;6.43;3.80;;;;;;;;;;4914182;29;20035;-93
2023/04/02 06:24:27;;;;;;;3.20;2.50;;;;;;;;;;4929012;29;20062;-92
2023/04/02 06:27:07;;;;;;;3.47;2.10;;;;;;;;;;4909972;29;20064;-94
2023/04/02 06:32:22;;;;;;;2.08;1.40;;;;;;;;;;4953396;23;20061;-92
2023/04/02 06:35:14;;;;;;;2.40;1.30;;;;;;;;;;5065853;23;20534;-93
2023/04/02 06:37:58;;;;;;;1.80;1.25;;;;;;;;;;4900829;29;20028;-96
2023/04/02 06:40:46;;;;;;;2.50;1.23;;;;;;;;;;4908111;29;20032;-94
2023/04/02 06:43:12;;;;;;;1.50;1.02;;;;;;;;;;5464159;23;21048;-91
2023/04/02 06:46:08;;;;;;;1.92;0.90;;;;;;;;;;4934344;29;20056;-87
2023/04/02 07:04:10;;;;;;;1.75;0.93;;;;;;;;;;4865893;29;20088;-93
2023/04/02 07:06:57;;;;;;;2.30;1.10;;;;;;;;;;4868758;29;20065;-91
2023/04/02 07:12:49;;;;;;;2.77;1.20;;;;;;;;;;4911259;29;20039;-95
2023/04/02 07:15:24;;;;;;;1.27;0.80;;;;;;;;;;4899290;29;20105;-93
2023/04/02 07:18:03;;;;;;;3.67;1.00;;;;;;;;;;4904160;29;20092;-94
2023/04/02 07:21:03;;;;;;;2.22;1.27;;;;;;;;;;4904115;29;20028;-93
2023/04/02 07:23:35;;;;;;;1.73;1.00;;;;;;;;;;4844377;29;20076;-92
2023/04/02 07:26:34;;;;;;;1.75;1.00;;;;;;;;;;4846972;29;20038;-93
2023/04/02 07:29:03;;;;;;;2.28;1.10;;;;;;;;;;4847038;29;20488;-91
2023/04/02 07:31:35;;;;;;;2.75;1.40;;;;;;;;;;4842677;29;20053;-92
2023/04/02 07:34:04;;;;;;;3.22;1.20;;;;;;;;;;4842455;29;20045;-91
2023/04/02 07:36:30;;;;;;;1.90;1.20;;;;;;;;;;4842870;29;20030;-92
2023/04/02 07:41:56;;;;;;;2.00;1.15;;;;;;;;;;4933176;23;20053;-92
2023/04/02 07:44:50;;;;;;;2.27;1.30;;;;;;;;;;4903155;29;20025;-92
2023/04/02 07:47:16;;;;;;;;;;;;;;;;;;4902557;29;20036;-93
2023/04/02 07:49:53;;;;;;;3.70;1.40;;;;;;;;;;4908056;29;19911;-95
2023/04/02 07:52:22;;;;;;;2.88;1.80;;;;;;;;;;4904596;29;20032;-91
2023/04/02 07:54:52;;;;;;;2.30;1.52;;;;;;;;;;5052171;23;20056;-91
2023/04/02 07:57:21;;;;;;;3.47;2.35;;;;;;;;;;4906537;29;20028;-91
2023/04/02 07:59:48;;;;;;;4.22;1.88;;;;;;;;;;4901984;29;20032;-93
2023/04/02 08:02:19;;;;;;;1.95;1.13;;;;;;;;;;4998327;23;20486;-92
2023/04/02 08:04:52;;;;;;;1.88;1.10;;;;;;;;;;4887010;29;20033;-93
2023/04/02 08:07:21;;;;;;;7.95;2.03;;;;;;;;;;4915341;29;20036;-92
2023/04/02 08:10:11;;;;;;;5.70;1.70;;;;;;;;;;4912938;29;20040;-90
2023/04/02 08:12:40;;;;;;;3.85;1.30;;;;;;;;;;4863571;29;20040;-94
2023/04/02 08:15:20;;;;;;;1.35;1.10;;;;;;;;;;4916461;29;20095;-95
2023/04/02 08:17:52;;;;;;;2.03;1.20;;;;;;;;;;4915041;29;20032;-91
2023/04/02 08:20:25;;;;;;;1.90;1.38;;;;;;;;;;4915329;29;20024;-95
2023/04/02 08:22:55;;;;;;;;;;;;;;;;;;4876564;29;20049;-91
2023/04/02 08:25:27;;;;;;;2.50;1.65;;;;;;;;;;4915434;29;19963;-91
2023/04/02 08:27:53;;;;;;;2.88;2.17;;;;;;;;;;4911397;29;20036;-92
2023/04/02 08:30:22;;;;;;;2.25;1.70;;;;;;;;;;4918752;29;20048;-90
2023/04/02 08:32:48;;;;;;;4.53;2.75;;;;;;;;;;4986895;23;20533;-92
2023/04/02 08:35:18;;;;;;;4.07;2.00;;;;;;;;;;4896101;29;20033;-91
2023/04/02 08:42:56;;;;;;;8.02;4.90;;;;;;;;;;4919296;29;20044;-90
2023/04/02 08:45:36;;;;;;;3.72;2.40;;;;;;;;;;4906066;29;20075;-94
2023/04/02 08:48:05;;;;;;;6.75;3.97;;;;;;;;;;4904970;29;20134;-92
2023/04/02 08:50:56;;;;;;;16.58;9.95;;;;;;;;;;4909074;29;20044;-91
2023/04/02 08:53:51;;;;;;;9.77;6.03;;;;;;;;;;4907985;29;20112;-93
2023/04/02 08:56:36;;;;;;;19.55;13.50;;;;;;;;;;5032827;23;20032;-93
2023/04/02 08:59:27;;;;;;;2.85;2.40;;;;;;;;;;4940669;23;20056;-93
2023/04/02 09:05:06;;;;;;;11.80;10.52;;;;;;;;;;4978175;23;20059;-93
2023/04/02 09:07:35;;;;;;;3.28;1.30;;;;;;;;;;4908355;29;20092;-94
2023/04/02 09:10:11;;;;;;;2.45;1.30;;;;;;;;;;4964434;23;20129;-92
2023/04/02 09:15:23;;;;;;;2.97;1.88;;;;;;;;;;4899620;29;20517;-93
2023/04/02 09:18:20;;;;;;;3.30;1.58;;;;;;;;;;5247516;23;20028;-93
2023/04/02 09:20:55;;;;;;;4.68;2.00;;;;;;;;;;4920712;23;20030;-93
2023/04/02 09:23:22;;;;;;;5.18;3.55;;;;;;;;;;4900443;29;20115;-93
2023/04/02 09:25:55;;;;;;;5.05;3.28;;;;;;;;;;4893665;29;20032;-91
2023/04/02 09:28:23;;;;;;;2.28;1.27;;;;;;;;;;4900832;29;20024;-93
2023/04/02 09:31:14;;;;;;;2.17;1.58;;;;;;;;;;4897260;29;20044;-92
2023/04/02 09:33:53;;;;;;;2.40;1.58;;;;;;;;;;4900648;29;20025;-93
2023/04/02 09:36:51;;;;;;;1.52;0.98;;;;;;;;;;4903973;29;20017;-92
2023/04/02 09:45:17;;;;;;;2.13;0.60;;;;;;;;;;5810909;23;20034;-94
2023/04/02 09:47:43;;;;;;;2.30;1.05;;;;;;;;;;4862043;29;20041;-91
2023/04/02 09:50:17;;;;;;;1.08;0.50;;;;;;;;;;4862932;29;20053;-93
2023/04/02 09:52:46;;;;;;;1.63;1.00;;;;;;;;;;4861666;29;20036;-91
2023/04/02 09:58:20;;;;;;;1.67;0.98;;;;;;;;;;4887163;29;20040;-92
2023/04/02 10:01:16;;;;;;;2.08;1.50;;;;;;;;;;4867505;29;20033;-93
2023/04/02 10:03:42;;;;;;;2.33;1.10;;;;;;;;;;4962838;23;20063;-91
2023/04/02 10:06:20;;;;;;;2.10;1.15;;;;;;;;;;4993326;23;20036;-94
2023/04/02 10:08:48;;;;;;;1.33;1.00;;;;;;;;;;4904598;29;20045;-96
2023/04/02 10:14:18;;;;;;;;;;;;;;;;;;5552195;23;20108;-91
2023/04/02 10:17:27;;;;;;;4.60;1.00;;;;;;;;;;4905625;29;19948;-92
2023/04/02 10:20:28;;;;;;;1.33;0.60;;;;;;;;;;4935128;23;20083;-94
2023/04/02 10:42:53;;;;;;;1.55;0.82;;;;;;;;;;5192339;23;20056;-95
2023/04/02 10:49:24;;;;;;;1.30;0.60;;;;;;;;;;4910147;29;20039;-95
2023/04/02 10:52:02;;;;;;;2.20;0.60;;;;;;;;;;4906667;29;20037;-92
2023/04/02 10:54:50;;;;;;;1.13;0.57;;;;;;;;;;4906981;29;20056;-94
2023/04/02 10:57:16;;;;;;;1.50;0.70;;;;;;;;;;5293102;23;20045;-91
2023/04/02 11:00:09;;;;;;;1.92;0.80;;;;;;;;;;4990148;23;20134;-91
2023/04/02 11:05:42;;;;;;;1.20;0.70;;;;;;;;;;5152223;23;20059;-93
2023/04/02 11:11:20;;;;;;;2.72;1.30;;;;;;;;;;5157955;23;20079;-93
2023/04/02 11:14:05;;;;;;;1.42;0.70;;;;;;;;;;4906272;29;20132;-93
2023/04/02 11:16:31;;;;;;;2.50;1.30;;;;;;;;;;4892546;29;20096;-94
2023/04/02 11:19:20;;;;;;;1.77;0.70;;;;;;;;;;4877041;29;20041;-92
2023/04/02 11:21:49;;;;;;;1.63;0.90;;;;;;;;;;4900120;29;20679;-89
2023/04/02 11:24:25;;;;;;;2.08;1.50;;;;;;;;;;5062663;23;20048;-92
2023/04/02 11:26:54;;;;;;;2.70;1.75;;;;;;;;;;4913515;29;20027;-93
2023/04/02 12:09:08;;;;;;;4.03;2.42;;;;;;;;;;5009326;23;20191;-95
2023/04/02 12:11:40;;;;;;;3.65;2.67;;;;;;;;;;4913626;29;20040;-93
2023/04/02 12:14:36;;;;;;;3.08;2.08;;;;;;;;;;4911174;29;20134;-96
2023/04/02 12:35:42;;;;;;;23.15;10.77;;;;;;;;;;5869098;23;20119;-93
2023/04/02 12:38:36;;;;;;;7.80;5.53;;;;;;;;;;4907278;23;20044;31
2023/04/02 12:41:29;;;;;;;9.90;6.88;;;;;;;;;;4944553;23;20076;-95
2023/04/02 12:44:22;;;;;;;13.98;9.23;;;;;;;;;;4854538;29;20034;-95
2023/04/02 12:46:58;;;;;;;9.07;5.38;;;;;;;;;;4904130;29;20060;-93
2023/04/02 12:58:31;;;;;;;2.92;2.00;;;;;;;;;;4929135;23;20090;-90
2023/04/02 13:01:26;;;;;;;2.67;1.67;;;;;;;;;;4923581;29;20043;-93
2023/04/02 13:04:23;;;;;;;3.35;1.70;;;;;;;;;;4889465;29;20028;-90
2023/04/02 13:06:55;;;;;;;2.75;1.35;;;;;;;;;;4914299;29;20031;-93
2023/04/02 13:09:23;;;;;;;;;;;;;;;;;;4923833;29;20556;-92
2023/04/02 13:11:55;;;;;;;2.60;1.77;;;;;;;;;;4905102;29;19979;-91
2023/04/02 14:16:08;;;;;;;5.60;4.45;;;;;;;;;;5664251;23;20119;-93
2023/04/02 14:25:24;;;;;;;4.18;3.13;;;;;;;;;;4925905;29;20035;-93
2023/04/02 14:28:15;;;;;;;3.65;2.42;;;;;;;;;;4869250;29;20022;-94
2023/04/02 14:31:00;;;;;;;4.13;2.75;;;;;;;;;;4869371;29;20044;-91
2023/04/02 14:36:08;;;;;;;3.42;2.33;;;;;;;;;;4954522;23;20081;-92
2023/04/02 14:38:52;;;;;;;4.13;2.72;;;;;;;;;;4911106;29;20048;-93
2023/04/02 14:41:33;;;;;;;7.80;2.47;;;;;;;;;;4907836;29;20020;-92
2023/04/02 14:44:02;;;;;;;7.50;2.80;;;;;;;;;;4907721;29;20032;-92
2023/04/02 14:46:33;;;;;;;4.60;2.95;;;;;;;;;;4907444;29;20387;-95
2023/04/02 14:49:09;;;;;;;4.32;2.88;;;;;;;;;;4905827;29;20083;-93
2023/04/02 14:52:11;;;;;;;4.28;2.83;;;;;;;;;;4907131;29;20048;-89
2023/04/02 14:55:09;;;;;;;4.70;2.95;;;;;;;;;;4871698;29;20046;-91
2023/04/02 14:57:53;;;;;;;4.30;2.85;;;;;;;;;;4862743;29;20570;-93
2023/04/02 15:00:20;;;;;;;4.38;3.22;;;;;;;;;;4867249;29;20052;-93
2023/04/02 15:02:52;;;;;;;4.43;3.40;;;;;;;;;;4865901;29;20038;-90
2023/04/02 15:05:40;;;;;;;4.45;3.13;;;;;;;;;;4971814;23;20052;-93
2023/04/02 15:08:25;;;;;;;5.25;3.35;;;;;;;;;;4905918;29;20348;-91
2023/04/02 15:20:12;;;;;;;6.05;4.00;;;;;;;;;;4938329;23;20055;-93
2023/04/02 15:23:00;;;;;;;5.53;4.10;;;;;;;;;;4902995;29;20028;-94
2023/04/02 15:25:36;;;;;;;5.72;4.32;;;;;;;;;;4903433;29;20063;-93
2023/04/02 15:28:22;;;;;;;5.22;4.00;;;;;;;;;;4904196;29;20147;-93
2023/04/02 15:31:01;;;;;;;6.40;4.38;;;;;;;;;;4904768;29;20036;-91
2023/04/02 15:34:02;;;;;;;5.30;3.60;;;;;;;;;;4902828;29;20020;-91
2023/04/02 15:36:50;;;;;;;5.95;3.88;;;;;;;;;;4861953;29;20052;-92
2023/04/02 15:39:25;;;;;;;9.38;4.40;;;;;;;;;;4876472;29;20093;-92
2023/04/02 15:42:04;;;;;;;5.85;3.60;;;;;;;;;;4905563;29;20020;-92
2023/04/02 15:44:34;;;;;;;7.57;4.07;;;;;;;;;;4890687;29;20055;-93
2023/04/02 15:49:48;;;;;;;5.82;3.78;;;;;;;;;;4919472;29;20059;-93
2023/04/02 15:52:35;;;;;;;6.47;4.35;;;;;;;;;;4902749;29;20036;-92
2023/04/02 15:55:16;;;;;;;4.85;3.13;;;;;;;;;;4906056;29;20032;-94
2023/04/02 15:58:04;;;;;;;5.68;3.50;;;;;;;;;;4903540;29;20500;-95
2023/04/02 16:28:13;;;;;;;5.95;3.38;;;;;;;;;;4917111;23;20052;-95
2023/04/02 16:36:52;;;;;;;6.50;4.03;;;;;;;;;;5214577;23;20678;-96
2023/04/02 16:40:02;;;;;;;;;;;;;;;;;;;;;
2023/04/02 16:43:43;;;;;;;;;;;;;;;;;;;;;
2023/04/02 16:51:50;;;;;;;6.07;3.92;;;;;;;;;;5456336;23;20281;-94
2023/04/02 17:03:43;;;;;;;7.47;3.95;;;;;;;;;;5212278;23;20158;-96
2023/04/02 17:22:45;;;;;;;6.53;4.57;;;;;;;;;;4958653;23;20056;-94
2023/04/02 17:26:02;;;;;;;7.78;4.47;;;;;;;;;;4908533;29;20033;-90
2023/04/02 17:31:12;;;;;;;7.90;4.38;;;;;;;;;;5480970;23;20060;-96
2023/04/02 17:33:38;;;;;;;5.50;3.80;;;;;;;;;;4888542;29;20438;-93
2023/04/02 17:39:46;;;;;;;11.13;6.63;;;;;;;;;;4901166;29;20091;-93
2023/04/02 17:42:12;;;;;;;6.20;3.92;;;;;;;;;;4885623;29;20382;-93
2023/04/02 17:45:12;;;;;;;8.18;4.60;;;;;;;;;;4895113;29;20021;-93
2023/04/02 17:47:47;;;;;;;7.25;4.75;;;;;;;;;;4885962;29;20092;-96
2023/04/02 17:50:35;;;;;;;8.40;4.85;;;;;;;;;;4887525;29;20047;-95
2023/04/02 17:53:27;;;;;;;7.10;4.72;;;;;;;;;;4885444;29;20012;-95
2023/04/02 17:56:12;;;;;;;7.00;4.40;;;;;;;;;;4828698;29;20045;-93
2023/04/02 17:59:03;;;;;;;6.80;4.65;;;;;;;;;;4807919;29;20030;-91
2023/04/02 18:01:48;;;;;;;6.18;4.30;;;;;;;;;;4868619;29;20186;-92
2023/04/02 18:20:57;;;;;;;6.38;4.05;;;;;;;;;;4945179;23;20105;-91
2023/04/02 18:23:42;;;;;;;5.18;3.70;;;;;;;;;;4885305;29;20096;-95
2023/04/02 18:32:14;;;;;;;6.82;4.38;;;;;;;;;;4934251;23;20056;-93
2023/04/02 18:34:52;;;;;;;7.45;4.45;;;;;;;;;;4887150;29;20389;-93
2023/04/02 18:37:40;;;;;;;7.18;4.80;;;;;;;;;;4885459;29;20035;-94
2023/04/02 18:46:25;;;;;;;8.73;5.38;;;;;;;;;;5266407;23;20059;-92
2023/04/02 19:03:42;;;;;;;9.98;5.20;;;;;;;;;;4931276;23;20045;-95
2023/04/02 19:11:54;;;;;;;8.13;4.43;;;;;;;;;;5167826;23;20088;-92
2023/04/02 19:14:24;;;;;;;7.35;4.25;;;;;;;;;;4912627;29;20028;-95
2023/04/02 19:17:28;;;;;;;6.97;4.70;;;;;;;;;;4911555;29;20100;-93
2023/04/02 19:22:55;;;;;;;7.20;4.30;;;;;;;;;;5104079;23;20428;-95
2023/04/02 19:28:54;;;;;;;6.82;3.90;;;;;;;;;;4903704;29;20044;-94
2023/04/02 19:31:52;;;;;;;6.53;4.40;;;;;;;;;;4886901;29;20123;-94
2023/04/02 19:46:31;;;;;;;6.45;3.80;;;;;;;;;;4884365;29;20060;-94
2023/04/02 19:52:29;;;;;;;6.72;3.58;;;;;;;;;;4867434;29;20053;-92
2023/04/02 19:54:55;;;;;;;8.02;4.22;;;;;;;;;;4864511;29;20033;-94
2023/04/02 19:57:27;;;;;;;5.88;4.20;;;;;;;;;;4865608;29;20030;-92
2023/04/02 20:00:15;;;;;;;6.35;3.60;;;;;;;;;;4861785;29;20045;-94
2023/04/02 20:12:05;;;;;;;5.33;3.73;;;;;;;;;;4893555;29;20100;-94
2023/04/02 20:20:26;;;;;;;5.55;3.55;;;;;;;;;;4890115;29;20490;-93
2023/04/02 20:25:39;;;;;;;7.47;4.10;;;;;;;;;;5016767;23;20064;-94
2023/04/02 20:31:04;;;;;;;5.50;4.00;;;;;;;;;;4998670;23;20081;-92
2023/04/02 20:33:37;;;;;;;9.73;5.00;;;;;;;;;;4899977;29;20032;-93
2023/04/02 20:36:50;;;;;;;6.75;3.92;;;;;;;;;;4895843;29;20024;-93
2023/04/02 20:39:20;;;;;;;8.27;5.15;;;;;;;;;;4840807;29;20030;-93
2023/04/02 20:42:04;;;;;;;6.40;4.18;;;;;;;;;;4841840;29;20046;-94
2023/04/02 20:45:00;;;;;;;5.57;3.20;;;;;;;;;;4875318;23;20040;-90
2023/04/02 20:47:28;;;;;;;6.20;4.00;;;;;;;;;;4841835;29;20049;-91
2023/04/02 20:49:55;;;;;;;5.40;3.83;;;;;;;;;;4833287;29;20477;-92
2023/04/02 21:03:28;;;;;;;;;;;;;;;;;;;;;
2023/04/02 21:05:54;;;;;;;5.22;3.30;;;;;;;;;;4898854;29;20033;-94
2023/04/02 21:11:27;;;;;;;4.55;2.85;;;;;;;;;;5073246;23;20101;-91
2023/04/02 21:14:03;;;;;;;5.07;2.80;;;;;;;;;;4898542;29;20478;-93
2023/04/02 21:16:35;;;;;;;5.35;3.30;;;;;;;;;;4881172;29;20045;-92
2023/04/02 21:22:06;;;;;;;5.38;2.42;;;;;;;;;;4823046;29;20078;-92
2023/04/02 21:24:44;;;;;;;4.93;2.95;;;;;;;;;;5126499;23;20064;-93
2023/04/02 21:27:24;;;;;;;4.35;2.78;;;;;;;;;;4899577;29;20507;-92
2023/04/02 21:29:57;;;;;;;4.38;2.80;;;;;;;;;;4887521;29;20138;-92
2023/04/02 21:35:18;;;;;;;4.88;2.63;;;;;;;;;;5411057;23;20056;-93
2023/04/02 21:37:44;;;;;;;3.97;2.65;;;;;;;;;;4897603;29;20618;-93
2023/04/02 21:40:22;;;;;;;5.57;3.15;;;;;;;;;;4908377;29;20028;-92
2023/04/02 21:45:39;;;;;;;5.15;3.45;;;;;;;;;;5201004;23;20430;-93
2023/04/02 21:48:20;;;;;;;4.85;3.38;;;;;;;;;;4898984;29;20033;-92
2023/04/02 21:51:11;;;;;;;7.60;4.03;;;;;;;;;;4903913;29;20044;-94
2023/04/02 21:57:08;;;;;;;8.10;4.10;;;;;;;;;;4880861;29;20032;-94
2023/04/02 21:59:46;;;;;;;5.93;4.35;;;;;;;;;;4880712;29;20105;-94
2023/04/02 22:02:30;;;;;;;6.65;4.30;;;;;;;;;;4884964;29;20029;-94
2023/04/02 22:05:32;;;;;;;5.93;4.22;;;;;;;;;;4882488;29;20049;-94
2023/04/02 22:11:38;;;;;;;4.90;3.70;;;;;;;;;;4848312;29;20052;-93
2023/04/02 22:25:43;;;;;;;6.95;4.63;;;;;;;;;;5627665;23;20090;-94
2023/04/02 22:28:27;;;;;;;10.57;6.07;;;;;;;;;;4902449;29;20189;-93
2023/04/02 22:31:05;;;;;;;7.07;4.53;;;;;;;;;;4901151;29;20501;-92
2023/04/02 22:36:52;;;;;;;5.10;3.65;;;;;;;;;;4919364;29;20040;-95
2023/04/02 22:39:24;;;;;;;5.80;3.57;;;;;;;;;;4902368;29;20423;-92
2023/04/02 22:41:53;;;;;;;5.63;3.85;;;;;;;;;;4902119;29;20477;-94
2023/04/02 22:44:26;;;;;;;5.13;3.67;;;;;;;;;;4941813;23;20111;-94
2023/04/02 22:46:55;;;;;;;6.73;3.70;;;;;;;;;;4912915;29;20039;-91
2023/04/02 22:49:25;;;;;;;5.60;4.03;;;;;;;;;;4918149;29;20373;-92
2023/04/02 22:52:00;;;;;;;5.82;3.83;;;;;;;;;;4918261;29;20086;-93
2023/04/02 22:54:29;;;;;;;5.10;3.75;;;;;;;;;;4918219;29;20064;-93
2023/04/02 22:57:05;;;;;;;5.25;3.70;;;;;;;;;;4918525;29;20115;-94
2023/04/02 22:59:31;;;;;;;7.65;4.10;;;;;;;;;;5038113;23;20059;-93
2023/04/02 23:01:57;;;;;;;6.18;3.67;;;;;;;;;;4900007;29;20033;-94
2023/04/02 23:04:57;;;;;;;;;;;;;;;;;;;;;
2023/04/02 23:07:26;;;;;;;5.38;3.42;;;;;;;;;;4895808;29;20048;-92
2023/04/02 23:09:52;;;;;;;5.47;3.50;;;;;;;;;;4899493;29;20041;-95
2023/04/02 23:12:39;;;;;;;6.43;4.05;;;;;;;;;;4900311;29;20467;-96
2023/04/02 23:15:29;;;;;;;4.95;3.50;;;;;;;;;;4898990;29;20033;-94
2023/04/02 23:17:55;;;;;;;6.07;3.50;;;;;;;;;;4900953;29;20040;-92
2023/04/02 23:20:30;;;;;;;5.72;3.90;;;;;;;;;;4907984;29;20040;-94
2023/04/02 23:23:05;;;;;;;8.20;4.90;;;;;;;;;;4900141;29;20033;-92
2023/04/02 23:25:40;;;;;;;6.05;3.40;;;;;;;;;;4899947;29;20029;-93
2023/04/02 23:28:19;;;;;;;4.72;3.22;;;;;;;;;;4898408;29;20040;-94
2023/04/02 23:30:45;;;;;;;6.60;3.70;;;;;;;;;;4898883;29;20067;-93
2023/04/02 23:33:27;;;;;;;5.30;3.40;;;;;;;;;;4900293;29;20028;-91
2023/04/02 23:36:21;;;;;;;4.88;3.63;;;;;;;;;;4896144;29;20040;-95
2023/04/02 23:47:20;;;;;;;3.53;2.40;;;;;;;;;;5084918;23;20065;-92
2023/04/02 23:49:46;;;;;;;3.92;2.55;;;;;;;;;;4898948;29;20040;-92
2023/04/02 23:55:07;;;;;;;4.85;2.65;;;;;;;;;;4909703;29;20533;-95
2023/04/02 23:57:33;;;;;;;4.22;2.60;;;;;;;;;;4899659;29;20032;-93
2023/04/02 23:59:59;;;;;;;5.75;2.78;;;;;;;;;;4899763;29;20033;-95
